sensor_id;sensor_type;location;lat;lon;timestamp;temperature;humidity
70079;DHT22;57451;52.496;13.456;2022-10-17T00:00:41;13.90;71.90
70079;DHT22;57451;52.496;13.456;2022-10-17T00:03:08;13.90;71.70
70079;DHT22;57451;52.496;13.456;2022-10-17T00:05:38;14.00;71.10
70079;DHT22;57451;52.496;13.456;2022-10-17T00:08:07;14.00;71.20
70079;DHT22;57451;52.496;13.456;2022-10-17T00:10:35;14.00;72.20
70079;DHT22;57451;52.496;13.456;2022-10-17T00:13:03;14.00;71.10
70079;DHT22;57451;52.496;13.456;2022-10-17T00:15:31;14.00;70.50
70079;DHT22;57451;52.496;13.456;2022-10-17T00:17:59;14.00;71.60
70079;DHT22;57451;52.496;13.456;2022-10-17T00:20:27;14.00;71.80
70079;DHT22;57451;52.496;13.456;2022-10-17T00:22:56;14.00;70.90
70079;DHT22;57451;52.496;13.456;2022-10-17T00:25:25;14.00;71.30
70079;DHT22;57451;52.496;13.456;2022-10-17T00:27:52;14.00;72.10
70079;DHT22;57451;52.496;13.456;2022-10-17T00:30:20;14.10;72.40
70079;DHT22;57451;52.496;13.456;2022-10-17T00:32:47;14.10;72.30
70079;DHT22;57451;52.496;13.456;2022-10-17T00:35:15;14.10;71.20
70079;DHT22;57451;52.496;13.456;2022-10-17T00:37:42;14.10;70.30
70079;DHT22;57451;52.496;13.456;2022-10-17T00:40:10;14.10;70.60
70079;DHT22;57451;52.496;13.456;2022-10-17T00:42:39;14.00;71.50
70079;DHT22;57451;52.496;13.456;2022-10-17T00:45:21;14.10;72.50
70079;DHT22;57451;52.496;13.456;2022-10-17T00:47:52;14.10;72.70
70079;DHT22;57451;52.496;13.456;2022-10-17T00:50:21;14.10;71.90
70079;DHT22;57451;52.496;13.456;2022-10-17T00:52:50;14.00;71.20
70079;DHT22;57451;52.496;13.456;2022-10-17T00:55:21;14.00;71.70
70079;DHT22;57451;52.496;13.456;2022-10-17T00:57:52;14.00;72.30
70079;DHT22;57451;52.496;13.456;2022-10-17T01:00:20;14.00;71.30
70079;DHT22;57451;52.496;13.456;2022-10-17T01:02:47;14.00;71.50
70079;DHT22;57451;52.496;13.456;2022-10-17T01:05:16;14.00;71.20
70079;DHT22;57451;52.496;13.456;2022-10-17T01:07:46;14.00;71.10
70079;DHT22;57451;52.496;13.456;2022-10-17T01:10:16;14.00;71.30
70079;DHT22;57451;52.496;13.456;2022-10-17T01:12:51;14.00;72.10
70079;DHT22;57451;52.496;13.456;2022-10-17T01:15:32;14.00;72.70
70079;DHT22;57451;52.496;13.456;2022-10-17T01:18:12;14.00;72.80
70079;DHT22;57451;52.496;13.456;2022-10-17T01:21:05;14.10;73.20
70079;DHT22;57451;52.496;13.456;2022-10-17T01:26:43;14.10;72.50
70079;DHT22;57451;52.496;13.456;2022-10-17T01:29:32;14.00;72.10
70079;DHT22;57451;52.496;13.456;2022-10-17T01:32:11;14.00;71.90
70079;DHT22;57451;52.496;13.456;2022-10-17T01:34:45;14.00;71.70
70079;DHT22;57451;52.496;13.456;2022-10-17T01:37:26;14.00;71.90
70079;DHT22;57451;52.496;13.456;2022-10-17T01:40:00;14.00;71.00
70079;DHT22;57451;52.496;13.456;2022-10-17T01:42:33;14.00;71.50
70079;DHT22;57451;52.496;13.456;2022-10-17T01:45:07;14.00;71.70
70079;DHT22;57451;52.496;13.456;2022-10-17T01:47:40;13.90;71.90
70079;DHT22;57451;52.496;13.456;2022-10-17T01:50:13;13.90;71.40
70079;DHT22;57451;52.496;13.456;2022-10-17T01:52:44;13.90;73.30
70079;DHT22;57451;52.496;13.456;2022-10-17T01:55:18;13.90;71.90
70079;DHT22;57451;52.496;13.456;2022-10-17T01:57:49;13.90;72.30
70079;DHT22;57451;52.496;13.456;2022-10-17T02:00:20;13.80;71.70
70079;DHT22;57451;52.496;13.456;2022-10-17T02:02:55;13.80;71.80
70079;DHT22;57451;52.496;13.456;2022-10-17T02:05:26;13.80;72.60
70079;DHT22;57451;52.496;13.456;2022-10-17T02:07:55;13.80;73.70
70079;DHT22;57451;52.496;13.456;2022-10-17T02:10:30;13.80;72.80
70079;DHT22;57451;52.496;13.456;2022-10-17T02:13:06;13.70;72.60
70079;DHT22;57451;52.496;13.456;2022-10-17T02:15:56;13.70;73.00
70079;DHT22;57451;52.496;13.456;2022-10-17T02:18:46;13.70;74.20
70079;DHT22;57451;52.496;13.456;2022-10-17T02:21:24;13.70;74.40
70079;DHT22;57451;52.496;13.456;2022-10-17T02:24:01;13.70;74.30
70079;DHT22;57451;52.496;13.456;2022-10-17T02:26:34;13.70;75.10
70079;DHT22;57451;52.496;13.456;2022-10-17T02:29:08;13.70;75.50
70079;DHT22;57451;52.496;13.456;2022-10-17T02:31:40;13.70;75.70
70079;DHT22;57451;52.496;13.456;2022-10-17T02:34:15;13.70;75.90
70079;DHT22;57451;52.496;13.456;2022-10-17T02:36:49;13.70;76.20
70079;DHT22;57451;52.496;13.456;2022-10-17T02:39:19;13.70;76.20
70079;DHT22;57451;52.496;13.456;2022-10-17T02:41:48;13.70;76.10
70079;DHT22;57451;52.496;13.456;2022-10-17T02:44:16;13.70;76.20
70079;DHT22;57451;52.496;13.456;2022-10-17T02:46:48;13.70;76.30
70079;DHT22;57451;52.496;13.456;2022-10-17T02:49:23;13.70;76.40
70079;DHT22;57451;52.496;13.456;2022-10-17T02:51:55;13.70;76.50
70079;DHT22;57451;52.496;13.456;2022-10-17T02:54:29;13.70;76.40
70079;DHT22;57451;52.496;13.456;2022-10-17T02:57:01;13.70;76.50
70079;DHT22;57451;52.496;13.456;2022-10-17T02:59:34;13.70;76.50
70079;DHT22;57451;52.496;13.456;2022-10-17T03:02:03;13.70;75.70
70079;DHT22;57451;52.496;13.456;2022-10-17T03:04:32;13.70;76.20
70079;DHT22;57451;52.496;13.456;2022-10-17T03:07:00;13.70;76.70
70079;DHT22;57451;52.496;13.456;2022-10-17T03:09:27;13.70;76.60
70079;DHT22;57451;52.496;13.456;2022-10-17T03:11:55;13.70;76.30
70079;DHT22;57451;52.496;13.456;2022-10-17T03:14:23;13.70;75.90
70079;DHT22;57451;52.496;13.456;2022-10-17T03:16:50;13.60;76.60
70079;DHT22;57451;52.496;13.456;2022-10-17T03:19:18;13.60;77.00
70079;DHT22;57451;52.496;13.456;2022-10-17T03:21:48;13.70;76.60
70079;DHT22;57451;52.496;13.456;2022-10-17T03:24:16;13.60;76.40
70079;DHT22;57451;52.496;13.456;2022-10-17T03:26:43;13.60;76.70
70079;DHT22;57451;52.496;13.456;2022-10-17T03:29:14;13.60;77.20
70079;DHT22;57451;52.496;13.456;2022-10-17T03:31:41;13.70;76.90
70079;DHT22;57451;52.496;13.456;2022-10-17T03:34:09;13.70;77.20
70079;DHT22;57451;52.496;13.456;2022-10-17T03:36:37;13.70;77.40
70079;DHT22;57451;52.496;13.456;2022-10-17T03:39:06;13.70;77.50
70079;DHT22;57451;52.496;13.456;2022-10-17T03:41:34;13.70;77.70
70079;DHT22;57451;52.496;13.456;2022-10-17T03:44:01;13.70;78.00
70079;DHT22;57451;52.496;13.456;2022-10-17T03:46:30;13.70;77.50
70079;DHT22;57451;52.496;13.456;2022-10-17T03:48:59;13.70;76.60
70079;DHT22;57451;52.496;13.456;2022-10-17T03:51:27;13.70;77.10
70079;DHT22;57451;52.496;13.456;2022-10-17T03:54:01;13.70;77.30
70079;DHT22;57451;52.496;13.456;2022-10-17T03:56:30;13.80;77.50
70079;DHT22;57451;52.496;13.456;2022-10-17T03:59:03;13.80;77.20
70079;DHT22;57451;52.496;13.456;2022-10-17T04:01:34;13.80;77.10
70079;DHT22;57451;52.496;13.456;2022-10-17T04:04:01;13.80;77.20
70079;DHT22;57451;52.496;13.456;2022-10-17T04:06:32;13.80;76.80
70079;DHT22;57451;52.496;13.456;2022-10-17T04:09:00;13.80;77.20
70079;DHT22;57451;52.496;13.456;2022-10-17T04:11:39;13.80;77.10
70079;DHT22;57451;52.496;13.456;2022-10-17T04:14:08;13.80;76.90
70079;DHT22;57451;52.496;13.456;2022-10-17T04:16:37;13.80;77.00
70079;DHT22;57451;52.496;13.456;2022-10-17T04:19:12;13.70;76.70
70079;DHT22;57451;52.496;13.456;2022-10-17T04:21:43;13.70;77.80
70079;DHT22;57451;52.496;13.456;2022-10-17T04:24:11;13.70;77.40
70079;DHT22;57451;52.496;13.456;2022-10-17T04:26:50;13.70;77.20
70079;DHT22;57451;52.496;13.456;2022-10-17T04:29:20;13.70;77.70
70079;DHT22;57451;52.496;13.456;2022-10-17T04:31:50;13.70;77.70
70079;DHT22;57451;52.496;13.456;2022-10-17T04:34:41;13.70;78.50
70079;DHT22;57451;52.496;13.456;2022-10-17T04:37:08;13.70;77.90
70079;DHT22;57451;52.496;13.456;2022-10-17T04:39:36;13.60;78.10
70079;DHT22;57451;52.496;13.456;2022-10-17T04:42:06;13.70;78.70
70079;DHT22;57451;52.496;13.456;2022-10-17T04:44:33;13.60;78.90
70079;DHT22;57451;52.496;13.456;2022-10-17T04:47:01;13.60;79.60
70079;DHT22;57451;52.496;13.456;2022-10-17T04:49:29;13.70;79.60
70079;DHT22;57451;52.496;13.456;2022-10-17T04:52:06;13.60;79.40
70079;DHT22;57451;52.496;13.456;2022-10-17T04:54:42;13.60;79.00
70079;DHT22;57451;52.496;13.456;2022-10-17T04:57:13;13.60;79.00
70079;DHT22;57451;52.496;13.456;2022-10-17T04:59:47;13.60;78.80
70079;DHT22;57451;52.496;13.456;2022-10-17T05:02:25;13.60;78.40
70079;DHT22;57451;52.496;13.456;2022-10-17T05:04:54;13.60;78.90
70079;DHT22;57451;52.496;13.456;2022-10-17T05:07:21;13.60;79.30
70079;DHT22;57451;52.496;13.456;2022-10-17T05:10:00;13.60;79.50
70079;DHT22;57451;52.496;13.456;2022-10-17T05:12:30;13.60;79.50
70079;DHT22;57451;52.496;13.456;2022-10-17T05:14:58;13.60;79.20
70079;DHT22;57451;52.496;13.456;2022-10-17T05:17:27;13.60;79.50
70079;DHT22;57451;52.496;13.456;2022-10-17T05:19:54;13.60;79.40
70079;DHT22;57451;52.496;13.456;2022-10-17T05:22:22;13.60;79.50
70079;DHT22;57451;52.496;13.456;2022-10-17T05:24:50;13.60;79.70
70079;DHT22;57451;52.496;13.456;2022-10-17T05:27:18;13.60;79.60
70079;DHT22;57451;52.496;13.456;2022-10-17T05:29:46;13.60;79.70
70079;DHT22;57451;52.496;13.456;2022-10-17T05:32:20;13.60;79.70
70079;DHT22;57451;52.496;13.456;2022-10-17T05:34:47;13.60;79.70
70079;DHT22;57451;52.496;13.456;2022-10-17T05:37:15;13.60;79.50
70079;DHT22;57451;52.496;13.456;2022-10-17T05:39:47;13.60;80.00
70079;DHT22;57451;52.496;13.456;2022-10-17T05:42:18;13.60;79.90
70079;DHT22;57451;52.496;13.456;2022-10-17T05:44:48;13.60;80.10
70079;DHT22;57451;52.496;13.456;2022-10-17T05:47:18;13.50;80.30
70079;DHT22;57451;52.496;13.456;2022-10-17T05:49:45;13.50;80.00
70079;DHT22;57451;52.496;13.456;2022-10-17T05:52:22;13.50;80.00
70079;DHT22;57451;52.496;13.456;2022-10-17T05:55:11;13.50;80.10
70079;DHT22;57451;52.496;13.456;2022-10-17T05:57:39;13.60;80.50
70079;DHT22;57451;52.496;13.456;2022-10-17T06:00:14;13.50;80.30
70079;DHT22;57451;52.496;13.456;2022-10-17T06:02:42;13.50;80.10
70079;DHT22;57451;52.496;13.456;2022-10-17T06:05:14;13.60;80.50
70079;DHT22;57451;52.496;13.456;2022-10-17T06:07:43;13.60;80.50
70079;DHT22;57451;52.496;13.456;2022-10-17T06:10:12;13.60;80.90
70079;DHT22;57451;52.496;13.456;2022-10-17T06:12:42;13.60;81.20
70079;DHT22;57451;52.496;13.456;2022-10-17T06:15:12;13.60;81.70
70079;DHT22;57451;52.496;13.456;2022-10-17T06:17:42;13.60;81.30
70079;DHT22;57451;52.496;13.456;2022-10-17T06:20:10;13.70;81.10
70079;DHT22;57451;52.496;13.456;2022-10-17T06:22:38;13.70;80.90
70079;DHT22;57451;52.496;13.456;2022-10-17T06:25:11;13.70;81.00
70079;DHT22;57451;52.496;13.456;2022-10-17T06:27:38;13.70;81.30
70079;DHT22;57451;52.496;13.456;2022-10-17T06:30:07;13.80;81.10
70079;DHT22;57451;52.496;13.456;2022-10-17T06:32:36;13.80;81.50
70079;DHT22;57451;52.496;13.456;2022-10-17T06:35:05;13.80;81.70
70079;DHT22;57451;52.496;13.456;2022-10-17T06:37:33;13.90;81.50
70079;DHT22;57451;52.496;13.456;2022-10-17T06:40:07;13.90;81.40
70079;DHT22;57451;52.496;13.456;2022-10-17T06:42:37;14.00;81.50
70079;DHT22;57451;52.496;13.456;2022-10-17T06:45:22;14.00;81.70
70079;DHT22;57451;52.496;13.456;2022-10-17T06:48:07;14.10;81.60
70079;DHT22;57451;52.496;13.456;2022-10-17T06:50:42;14.10;81.60
70079;DHT22;57451;52.496;13.456;2022-10-17T06:53:20;14.20;81.40
70079;DHT22;57451;52.496;13.456;2022-10-17T06:56:07;14.30;81.50
70079;DHT22;57451;52.496;13.456;2022-10-17T06:58:54;14.30;81.30
70079;DHT22;57451;52.496;13.456;2022-10-17T07:01:29;14.40;81.00
70079;DHT22;57451;52.496;13.456;2022-10-17T07:04:00;14.50;80.90
70079;DHT22;57451;52.496;13.456;2022-10-17T07:06:29;14.50;80.80
70079;DHT22;57451;52.496;13.456;2022-10-17T07:09:01;14.60;81.00
70079;DHT22;57451;52.496;13.456;2022-10-17T07:11:29;14.60;81.00
70079;DHT22;57451;52.496;13.456;2022-10-17T07:13:57;14.70;80.60
70079;DHT22;57451;52.496;13.456;2022-10-17T07:16:24;14.70;80.40
70079;DHT22;57451;52.496;13.456;2022-10-17T07:19:02;14.90;80.80
70079;DHT22;57451;52.496;13.456;2022-10-17T07:21:34;14.90;80.50
70079;DHT22;57451;52.496;13.456;2022-10-17T07:24:06;15.10;80.30
70079;DHT22;57451;52.496;13.456;2022-10-17T07:26:34;15.20;80.00
70079;DHT22;57451;52.496;13.456;2022-10-17T07:29:04;15.30;79.60
70079;DHT22;57451;52.496;13.456;2022-10-17T07:31:37;15.40;79.30
70079;DHT22;57451;52.496;13.456;2022-10-17T07:34:07;15.50;79.10
70079;DHT22;57451;52.496;13.456;2022-10-17T07:36:34;15.60;78.80
70079;DHT22;57451;52.496;13.456;2022-10-17T07:39:04;15.70;78.30
70079;DHT22;57451;52.496;13.456;2022-10-17T07:41:32;15.80;78.00
70079;DHT22;57451;52.496;13.456;2022-10-17T07:44:00;15.90;77.70
70079;DHT22;57451;52.496;13.456;2022-10-17T07:46:33;16.00;77.50
70079;DHT22;57451;52.496;13.456;2022-10-17T07:49:00;16.20;77.10
70079;DHT22;57451;52.496;13.456;2022-10-17T07:51:29;16.30;76.90
70079;DHT22;57451;52.496;13.456;2022-10-17T07:53:57;16.50;76.60
70079;DHT22;57451;52.496;13.456;2022-10-17T07:56:24;16.70;76.20
70079;DHT22;57451;52.496;13.456;2022-10-17T07:58:52;16.90;75.80
70079;DHT22;57451;52.496;13.456;2022-10-17T08:01:20;17.10;75.00
70079;DHT22;57451;52.496;13.456;2022-10-17T08:03:47;17.40;74.00
70079;DHT22;57451;52.496;13.456;2022-10-17T08:06:15;17.50;73.30
70079;DHT22;57451;52.496;13.456;2022-10-17T08:08:43;17.70;72.70
70079;DHT22;57451;52.496;13.456;2022-10-17T08:11:12;17.90;72.20
70079;DHT22;57451;52.496;13.456;2022-10-17T08:13:41;18.10;71.30
70079;DHT22;57451;52.496;13.456;2022-10-17T08:16:10;18.40;70.60
70079;DHT22;57451;52.496;13.456;2022-10-17T08:18:39;18.60;69.80
70079;DHT22;57451;52.496;13.456;2022-10-17T08:21:07;18.70;69.00
70079;DHT22;57451;52.496;13.456;2022-10-17T08:23:35;18.90;68.20
70079;DHT22;57451;52.496;13.456;2022-10-17T08:26:06;19.10;68.30
70079;DHT22;57451;52.496;13.456;2022-10-17T08:28:37;19.40;67.00
70079;DHT22;57451;52.496;13.456;2022-10-17T08:31:06;19.60;66.40
70079;DHT22;57451;52.496;13.456;2022-10-17T08:33:34;19.80;66.40
70079;DHT22;57451;52.496;13.456;2022-10-17T08:36:02;20.00;65.50
70079;DHT22;57451;52.496;13.456;2022-10-17T08:38:30;20.20;64.40
70079;DHT22;57451;52.496;13.456;2022-10-17T08:41:11;20.30;64.40
70079;DHT22;57451;52.496;13.456;2022-10-17T08:43:48;20.50;64.50
70079;DHT22;57451;52.496;13.456;2022-10-17T08:46:18;20.70;62.90
70079;DHT22;57451;52.496;13.456;2022-10-17T08:48:47;20.90;62.90
70079;DHT22;57451;52.496;13.456;2022-10-17T08:51:18;21.00;62.60
70079;DHT22;57451;52.496;13.456;2022-10-17T08:53:50;21.20;62.00
70079;DHT22;57451;52.496;13.456;2022-10-17T08:56:23;21.30;61.30
70079;DHT22;57451;52.496;13.456;2022-10-17T08:59:12;21.50;61.20
70079;DHT22;57451;52.496;13.456;2022-10-17T09:01:43;21.70;60.20
70079;DHT22;57451;52.496;13.456;2022-10-17T09:04:29;22.00;60.60
70079;DHT22;57451;52.496;13.456;2022-10-17T09:07:07;22.20;59.30
70079;DHT22;57451;52.496;13.456;2022-10-17T09:09:44;22.50;58.40
70079;DHT22;57451;52.496;13.456;2022-10-17T09:12:17;22.80;57.90
70079;DHT22;57451;52.496;13.456;2022-10-17T09:15:11;23.00;57.10
70079;DHT22;57451;52.496;13.456;2022-10-17T09:17:47;23.20;56.80
70079;DHT22;57451;52.496;13.456;2022-10-17T09:20:20;23.40;56.40
70079;DHT22;57451;52.496;13.456;2022-10-17T09:22:52;23.70;54.80
70079;DHT22;57451;52.496;13.456;2022-10-17T09:25:23;23.90;55.30
70079;DHT22;57451;52.496;13.456;2022-10-17T09:27:57;24.00;55.20
70079;DHT22;57451;52.496;13.456;2022-10-17T09:30:33;24.20;55.10
70079;DHT22;57451;52.496;13.456;2022-10-17T09:33:19;24.50;53.80
70079;DHT22;57451;52.496;13.456;2022-10-17T09:36:10;24.70;54.70
70079;DHT22;57451;52.496;13.456;2022-10-17T09:38:40;24.90;53.00
70079;DHT22;57451;52.496;13.456;2022-10-17T09:41:16;25.10;52.30
70079;DHT22;57451;52.496;13.456;2022-10-17T09:44:14;25.40;51.90
70079;DHT22;57451;52.496;13.456;2022-10-17T09:46:49;25.60;51.10
70079;DHT22;57451;52.496;13.456;2022-10-17T09:49:24;25.80;50.20
70079;DHT22;57451;52.496;13.456;2022-10-17T09:51:52;25.90;50.80
70079;DHT22;57451;52.496;13.456;2022-10-17T09:54:23;26.10;50.20
70079;DHT22;57451;52.496;13.456;2022-10-17T09:56:59;26.20;49.70
70079;DHT22;57451;52.496;13.456;2022-10-17T09:59:33;26.40;49.80
70079;DHT22;57451;52.496;13.456;2022-10-17T10:02:15;26.50;49.70
70079;DHT22;57451;52.496;13.456;2022-10-17T10:04:51;26.70;49.40
70079;DHT22;57451;52.496;13.456;2022-10-17T10:07:36;26.90;48.80
70079;DHT22;57451;52.496;13.456;2022-10-17T10:10:07;27.10;50.00
70079;DHT22;57451;52.496;13.456;2022-10-17T10:13:02;27.30;48.20
70079;DHT22;57451;52.496;13.456;2022-10-17T10:15:35;27.30;48.10
70079;DHT22;57451;52.496;13.456;2022-10-17T10:18:30;27.50;48.00
70079;DHT22;57451;52.496;13.456;2022-10-17T10:21:10;27.60;46.60
70079;DHT22;57451;52.496;13.456;2022-10-17T10:23:40;27.70;47.70
70079;DHT22;57451;52.496;13.456;2022-10-17T10:26:21;27.80;47.10
70079;DHT22;57451;52.496;13.456;2022-10-17T10:28:55;27.90;46.20
70079;DHT22;57451;52.496;13.456;2022-10-17T10:31:28;27.80;45.80
70079;DHT22;57451;52.496;13.456;2022-10-17T10:33:59;27.70;47.10
70079;DHT22;57451;52.496;13.456;2022-10-17T10:36:45;27.70;46.40
70079;DHT22;57451;52.496;13.456;2022-10-17T10:39:25;27.70;45.80
70079;DHT22;57451;52.496;13.456;2022-10-17T10:41:53;27.60;47.50
70079;DHT22;57451;52.496;13.456;2022-10-17T10:44:27;27.60;46.20
70079;DHT22;57451;52.496;13.456;2022-10-17T10:47:16;27.50;47.10
70079;DHT22;57451;52.496;13.456;2022-10-17T10:49:44;27.60;46.80
70079;DHT22;57451;52.496;13.456;2022-10-17T10:52:19;27.70;46.10
70079;DHT22;57451;52.496;13.456;2022-10-17T10:54:54;27.90;46.40
70079;DHT22;57451;52.496;13.456;2022-10-17T10:57:28;28.00;45.20
70079;DHT22;57451;52.496;13.456;2022-10-17T11:00:03;28.10;45.30
70079;DHT22;57451;52.496;13.456;2022-10-17T11:02:37;28.10;44.30
70079;DHT22;57451;52.496;13.456;2022-10-17T11:05:13;28.00;45.30
70079;DHT22;57451;52.496;13.456;2022-10-17T11:07:46;28.00;45.10
70079;DHT22;57451;52.496;13.456;2022-10-17T11:10:27;28.10;45.20
70079;DHT22;57451;52.496;13.456;2022-10-17T11:13:00;28.10;44.80
70079;DHT22;57451;52.496;13.456;2022-10-17T11:15:34;28.10;45.10
70079;DHT22;57451;52.496;13.456;2022-10-17T11:18:06;28.00;45.20
70079;DHT22;57451;52.496;13.456;2022-10-17T11:20:43;28.00;44.80
70079;DHT22;57451;52.496;13.456;2022-10-17T11:23:18;28.00;45.40
70079;DHT22;57451;52.496;13.456;2022-10-17T11:25:50;28.00;45.80
70079;DHT22;57451;52.496;13.456;2022-10-17T11:28:21;28.00;45.40
70079;DHT22;57451;52.496;13.456;2022-10-17T11:30:54;28.00;44.70
70079;DHT22;57451;52.496;13.456;2022-10-17T11:33:28;28.00;44.90
70079;DHT22;57451;52.496;13.456;2022-10-17T11:36:02;28.00;44.30
70079;DHT22;57451;52.496;13.456;2022-10-17T11:38:39;27.90;45.80
70079;DHT22;57451;52.496;13.456;2022-10-17T11:41:11;28.00;44.90
70079;DHT22;57451;52.496;13.456;2022-10-17T11:43:44;28.00;44.50
70079;DHT22;57451;52.496;13.456;2022-10-17T11:46:16;28.00;44.80
70079;DHT22;57451;52.496;13.456;2022-10-17T11:49:08;28.00;44.20
70079;DHT22;57451;52.496;13.456;2022-10-17T11:51:44;28.00;44.60
70079;DHT22;57451;52.496;13.456;2022-10-17T11:54:33;28.10;44.40
70079;DHT22;57451;52.496;13.456;2022-10-17T11:57:11;28.20;43.90
70079;DHT22;57451;52.496;13.456;2022-10-17T11:59:56;28.20;44.20
70079;DHT22;57451;52.496;13.456;2022-10-17T12:02:31;28.20;43.70
70079;DHT22;57451;52.496;13.456;2022-10-17T12:05:08;28.10;43.80
70079;DHT22;57451;52.496;13.456;2022-10-17T12:07:46;28.10;44.20
70079;DHT22;57451;52.496;13.456;2022-10-17T12:10:23;28.20;44.70
70079;DHT22;57451;52.496;13.456;2022-10-17T12:12:52;28.30;43.90
70079;DHT22;57451;52.496;13.456;2022-10-17T12:15:27;28.40;43.20
70079;DHT22;57451;52.496;13.456;2022-10-17T12:17:58;28.30;44.30
70079;DHT22;57451;52.496;13.456;2022-10-17T12:20:33;28.40;43.50
70079;DHT22;57451;52.496;13.456;2022-10-17T12:23:13;28.40;43.30
70079;DHT22;57451;52.496;13.456;2022-10-17T12:25:51;28.30;44.30
70079;DHT22;57451;52.496;13.456;2022-10-17T12:28:25;28.30;44.40
70079;DHT22;57451;52.496;13.456;2022-10-17T12:30:59;28.30;43.50
70079;DHT22;57451;52.496;13.456;2022-10-17T12:33:31;28.30;44.20
70079;DHT22;57451;52.496;13.456;2022-10-17T12:39:49;28.60;43.90
70079;DHT22;57451;52.496;13.456;2022-10-17T12:42:34;28.70;42.80
70079;DHT22;57451;52.496;13.456;2022-10-17T12:45:47;28.70;43.80
70079;DHT22;57451;52.496;13.456;2022-10-17T12:51:26;28.80;43.30
70079;DHT22;57451;52.496;13.456;2022-10-17T12:54:09;28.80;42.60
70079;DHT22;57451;52.496;13.456;2022-10-17T12:56:41;28.80;42.00
70079;DHT22;57451;52.496;13.456;2022-10-17T12:59:14;28.80;42.90
70079;DHT22;57451;52.496;13.456;2022-10-17T13:01:45;28.90;42.60
70079;DHT22;57451;52.496;13.456;2022-10-17T13:04:14;29.00;44.30
70079;DHT22;57451;52.496;13.456;2022-10-17T13:06:45;29.10;42.50
70079;DHT22;57451;52.496;13.456;2022-10-17T13:09:21;29.20;42.40
70079;DHT22;57451;52.496;13.456;2022-10-17T13:11:52;29.20;41.70
70079;DHT22;57451;52.496;13.456;2022-10-17T13:14:24;29.00;42.40
70079;DHT22;57451;52.496;13.456;2022-10-17T13:16:56;29.10;42.60
70079;DHT22;57451;52.496;13.456;2022-10-17T13:19:29;29.20;41.70
70079;DHT22;57451;52.496;13.456;2022-10-17T13:22:02;29.20;42.90
70079;DHT22;57451;52.496;13.456;2022-10-17T13:24:35;29.30;42.60
70079;DHT22;57451;52.496;13.456;2022-10-17T13:27:20;29.40;41.70
70079;DHT22;57451;52.496;13.456;2022-10-17T13:29:51;29.40;41.60
70079;DHT22;57451;52.496;13.456;2022-10-17T13:32:21;29.40;41.90
70079;DHT22;57451;52.496;13.456;2022-10-17T13:35:04;29.50;41.70
70079;DHT22;57451;52.496;13.456;2022-10-17T13:37:39;29.30;41.70
70079;DHT22;57451;52.496;13.456;2022-10-17T13:40:16;29.20;42.30
70079;DHT22;57451;52.496;13.456;2022-10-17T13:43:13;29.10;42.70
70079;DHT22;57451;52.496;13.456;2022-10-17T13:45:47;29.30;42.60
70079;DHT22;57451;52.496;13.456;2022-10-17T13:48:22;29.30;42.50
70079;DHT22;57451;52.496;13.456;2022-10-17T13:50:57;29.10;42.10
70079;DHT22;57451;52.496;13.456;2022-10-17T13:53:34;29.10;42.60
70079;DHT22;57451;52.496;13.456;2022-10-17T13:56:04;29.20;43.40
70079;DHT22;57451;52.496;13.456;2022-10-17T13:59:01;29.40;42.40
70079;DHT22;57451;52.496;13.456;2022-10-17T14:01:31;29.30;42.40
70079;DHT22;57451;52.496;13.456;2022-10-17T14:04:01;29.30;42.50
70079;DHT22;57451;52.496;13.456;2022-10-17T14:06:46;29.40;42.50
70079;DHT22;57451;52.496;13.456;2022-10-17T14:09:27;29.50;42.20
70079;DHT22;57451;52.496;13.456;2022-10-17T14:12:09;29.60;40.90
70079;DHT22;57451;52.496;13.456;2022-10-17T14:14:52;29.30;41.50
70079;DHT22;57451;52.496;13.456;2022-10-17T14:17:39;29.30;42.20
70079;DHT22;57451;52.496;13.456;2022-10-17T14:20:17;29.20;42.00
70079;DHT22;57451;52.496;13.456;2022-10-17T14:23:27;29.10;43.10
70079;DHT22;57451;52.496;13.456;2022-10-17T14:26:06;28.90;42.00
70079;DHT22;57451;52.496;13.456;2022-10-17T14:28:35;28.80;42.40
70079;DHT22;57451;52.496;13.456;2022-10-17T14:31:20;28.50;43.40
70079;DHT22;57451;52.496;13.456;2022-10-17T14:33:52;28.50;43.50
70079;DHT22;57451;52.496;13.456;2022-10-17T14:36:35;28.50;43.30
70079;DHT22;57451;52.496;13.456;2022-10-17T14:39:05;28.30;43.70
70079;DHT22;57451;52.496;13.456;2022-10-17T14:41:42;28.20;44.20
70079;DHT22;57451;52.496;13.456;2022-10-17T14:44:19;28.10;44.10
70079;DHT22;57451;52.496;13.456;2022-10-17T14:46:55;28.10;44.20
70079;DHT22;57451;52.496;13.456;2022-10-17T14:49:34;28.00;44.30
70079;DHT22;57451;52.496;13.456;2022-10-17T14:52:25;27.90;45.40
70079;DHT22;57451;52.496;13.456;2022-10-17T14:54:53;27.80;44.70
70079;DHT22;57451;52.496;13.456;2022-10-17T14:57:25;27.50;45.10
70079;DHT22;57451;52.496;13.456;2022-10-17T14:59:53;27.40;45.80
70079;DHT22;57451;52.496;13.456;2022-10-17T15:02:24;27.30;45.80
70079;DHT22;57451;52.496;13.456;2022-10-17T15:04:53;27.20;46.20
70079;DHT22;57451;52.496;13.456;2022-10-17T15:07:21;27.10;46.30
70079;DHT22;57451;52.496;13.456;2022-10-17T15:09:51;27.00;46.40
70079;DHT22;57451;52.496;13.456;2022-10-17T15:12:22;26.90;46.90
70079;DHT22;57451;52.496;13.456;2022-10-17T15:14:55;26.80;46.90
70079;DHT22;57451;52.496;13.456;2022-10-17T15:17:26;26.70;47.20
70079;DHT22;57451;52.496;13.456;2022-10-17T15:19:55;26.50;47.90
70079;DHT22;57451;52.496;13.456;2022-10-17T15:22:23;26.40;47.60
70079;DHT22;57451;52.496;13.456;2022-10-17T15:24:51;26.20;47.80
70079;DHT22;57451;52.496;13.456;2022-10-17T15:27:21;26.10;48.60
70079;DHT22;57451;52.496;13.456;2022-10-17T15:29:49;26.00;48.80
70079;DHT22;57451;52.496;13.456;2022-10-17T15:32:19;25.90;48.90
70079;DHT22;57451;52.496;13.456;2022-10-17T15:34:48;25.90;49.50
70079;DHT22;57451;52.496;13.456;2022-10-17T15:37:20;25.80;49.20
70079;DHT22;57451;52.496;13.456;2022-10-17T15:39:50;25.70;49.50
70079;DHT22;57451;52.496;13.456;2022-10-17T15:42:25;25.50;49.60
70079;DHT22;57451;52.496;13.456;2022-10-17T15:44:53;25.50;50.10
70079;DHT22;57451;52.496;13.456;2022-10-17T15:47:25;25.30;50.20
70079;DHT22;57451;52.496;13.456;2022-10-17T15:49:56;25.20;50.40
70079;DHT22;57451;52.496;13.456;2022-10-17T15:52:24;25.10;50.70
70079;DHT22;57451;52.496;13.456;2022-10-17T15:54:52;25.00;50.90
70079;DHT22;57451;52.496;13.456;2022-10-17T15:57:22;24.90;51.20
70079;DHT22;57451;52.496;13.456;2022-10-17T15:59:51;24.80;51.30
70079;DHT22;57451;52.496;13.456;2022-10-17T16:02:21;24.70;51.80